sensor_id;sensor_type;location;lat;lon;timestamp;P1;durP1;ratioP1;P2;durP2;ratioP2
71566;SDS011;59403;47.456;19.120;2023-02-14T00:00:26;23.58;;;9.50;;
71566;SDS011;59403;47.456;19.120;2023-02-14T00:02:53;21.55;;;10.02;;
71566;SDS011;59403;47.456;19.120;2023-02-14T00:05:21;21.40;;;9.13;;
71566;SDS011;59403;47.456;19.120;2023-02-14T00:07:48;23.85;;;10.38;;
71566;SDS011;59403;47.456;19.120;2023-02-14T00:10:15;21.77;;;10.07;;
71566;SDS011;59403;47.456;19.120;2023-02-14T00:12:43;21.35;;;10.10;;
71566;SDS011;59403;47.456;19.120;2023-02-14T00:15:10;23.30;;;10.02;;
71566;SDS011;59403;47.456;19.120;2023-02-14T00:17:49;22.87;;;9.68;;
71566;SDS011;59403;47.456;19.120;2023-02-14T00:20:17;21.08;;;9.90;;
71566;SDS011;59403;47.456;19.120;2023-02-14T00:22:44;22.23;;;10.57;;
71566;SDS011;59403;47.456;19.120;2023-02-14T00:25:11;23.42;;;10.52;;
71566;SDS011;59403;47.456;19.120;2023-02-14T00:27:38;24.05;;;10.63;;
71566;SDS011;59403;47.456;19.120;2023-02-14T00:30:07;21.90;;;10.38;;
71566;SDS011;59403;47.456;19.120;2023-02-14T00:32:36;24.55;;;10.48;;
71566;SDS011;59403;47.456;19.120;2023-02-14T00:35:03;23.50;;;9.13;;
71566;SDS011;59403;47.456;19.120;2023-02-14T00:37:31;20.23;;;9.10;;
71566;SDS011;59403;47.456;19.120;2023-02-14T00:39:58;21.62;;;10.10;;
71566;SDS011;59403;47.456;19.120;2023-02-14T00:42:25;22.15;;;10.05;;
71566;SDS011;59403;47.456;19.120;2023-02-14T00:44:52;22.35;;;9.98;;
71566;SDS011;59403;47.456;19.120;2023-02-14T00:47:20;24.83;;;10.03;;
71566;SDS011;59403;47.456;19.120;2023-02-14T00:49:49;22.05;;;10.07;;
71566;SDS011;59403;47.456;19.120;2023-02-14T00:52:16;25.50;;;10.73;;
71566;SDS011;59403;47.456;19.120;2023-02-14T00:54:43;21.50;;;9.63;;
71566;SDS011;59403;47.456;19.120;2023-02-14T00:57:10;21.15;;;10.30;;
71566;SDS011;59403;47.456;19.120;2023-02-14T00:59:37;24.13;;;10.20;;
71566;SDS011;59403;47.456;19.120;2023-02-14T01:02:04;21.75;;;9.40;;
71566;SDS011;59403;47.456;19.120;2023-02-14T01:04:33;22.50;;;9.82;;
71566;SDS011;59403;47.456;19.120;2023-02-14T01:07:00;21.42;;;9.30;;
71566;SDS011;59403;47.456;19.120;2023-02-14T01:09:27;24.67;;;9.80;;
71566;SDS011;59403;47.456;19.120;2023-02-14T01:11:54;22.17;;;9.50;;
71566;SDS011;59403;47.456;19.120;2023-02-14T01:14:21;23.83;;;9.38;;
71566;SDS011;59403;47.456;19.120;2023-02-14T01:16:48;19.62;;;9.77;;
71566;SDS011;59403;47.456;19.120;2023-02-14T01:19:15;20.48;;;9.38;;
71566;SDS011;59403;47.456;19.120;2023-02-14T01:21:43;23.00;;;9.05;;
71566;SDS011;59403;47.456;19.120;2023-02-14T01:24:10;24.13;;;9.20;;
71566;SDS011;59403;47.456;19.120;2023-02-14T01:26:38;23.80;;;9.13;;
71566;SDS011;59403;47.456;19.120;2023-02-14T01:29:04;22.15;;;8.90;;
71566;SDS011;59403;47.456;19.120;2023-02-14T01:31:33;21.50;;;9.27;;
71566;SDS011;59403;47.456;19.120;2023-02-14T01:34:01;21.95;;;8.98;;
71566;SDS011;59403;47.456;19.120;2023-02-14T01:36:29;20.40;;;8.07;;
71566;SDS011;59403;47.456;19.120;2023-02-14T01:38:59;20.67;;;8.60;;
71566;SDS011;59403;47.456;19.120;2023-02-14T01:41:28;22.20;;;9.43;;
71566;SDS011;59403;47.456;19.120;2023-02-14T01:43:57;20.20;;;8.18;;
71566;SDS011;59403;47.456;19.120;2023-02-14T01:46:26;21.30;;;8.82;;
71566;SDS011;59403;47.456;19.120;2023-02-14T01:48:56;20.30;;;8.67;;
71566;SDS011;59403;47.456;19.120;2023-02-14T01:51:26;18.85;;;8.02;;
71566;SDS011;59403;47.456;19.120;2023-02-14T01:53:55;20.98;;;8.35;;
71566;SDS011;59403;47.456;19.120;2023-02-14T01:56:26;20.52;;;8.45;;
71566;SDS011;59403;47.456;19.120;2023-02-14T01:58:57;20.20;;;7.93;;
71566;SDS011;59403;47.456;19.120;2023-02-14T02:06:43;19.83;;;8.65;;
71566;SDS011;59403;47.456;19.120;2023-02-14T02:09:17;21.55;;;7.72;;
71566;SDS011;59403;47.456;19.120;2023-02-14T02:11:51;19.65;;;8.07;;
71566;SDS011;59403;47.456;19.120;2023-02-14T02:14:19;22.00;;;8.63;;
71566;SDS011;59403;47.456;19.120;2023-02-14T02:16:55;22.23;;;8.88;;
71566;SDS011;59403;47.456;19.120;2023-02-14T02:19:53;19.83;;;8.68;;
71566;SDS011;59403;47.456;19.120;2023-02-14T02:22:47;20.95;;;8.95;;
71566;SDS011;59403;47.456;19.120;2023-02-14T02:25:46;22.83;;;8.75;;
71566;SDS011;59403;47.456;19.120;2023-02-14T02:28:45;24.43;;;9.10;;
71566;SDS011;59403;47.456;19.120;2023-02-14T02:31:36;23.33;;;9.70;;
71566;SDS011;59403;47.456;19.120;2023-02-14T02:34:28;21.37;;;8.98;;
71566;SDS011;59403;47.456;19.120;2023-02-14T02:37:21;23.77;;;8.68;;
71566;SDS011;59403;47.456;19.120;2023-02-14T02:40:00;22.05;;;8.73;;
71566;SDS011;59403;47.456;19.120;2023-02-14T02:42:39;23.10;;;8.97;;
71566;SDS011;59403;47.456;19.120;2023-02-14T02:45:19;23.08;;;8.82;;
71566;SDS011;59403;47.456;19.120;2023-02-14T02:47:55;23.65;;;9.35;;
71566;SDS011;59403;47.456;19.120;2023-02-14T02:50:30;20.90;;;8.32;;
71566;SDS011;59403;47.456;19.120;2023-02-14T02:53:37;23.67;;;9.50;;
71566;SDS011;59403;47.456;19.120;2023-02-14T02:56:12;23.30;;;9.50;;
71566;SDS011;59403;47.456;19.120;2023-02-14T02:59:02;23.17;;;8.77;;
71566;SDS011;59403;47.456;19.120;2023-02-14T03:01:42;22.45;;;8.90;;
71566;SDS011;59403;47.456;19.120;2023-02-14T03:04:13;23.30;;;9.02;;
71566;SDS011;59403;47.456;19.120;2023-02-14T03:07:00;22.62;;;9.43;;
71566;SDS011;59403;47.456;19.120;2023-02-14T03:09:52;23.97;;;9.60;;
71566;SDS011;59403;47.456;19.120;2023-02-14T03:12:28;24.37;;;9.32;;
71566;SDS011;59403;47.456;19.120;2023-02-14T03:15:14;21.33;;;8.77;;
71566;SDS011;59403;47.456;19.120;2023-02-14T03:17:52;21.85;;;8.98;;
71566;SDS011;59403;47.456;19.120;2023-02-14T03:20:29;27.52;;;9.32;;
71566;SDS011;59403;47.456;19.120;2023-02-14T03:23:07;24.00;;;8.50;;
71566;SDS011;59403;47.456;19.120;2023-02-14T03:25:41;20.40;;;8.65;;
71566;SDS011;59403;47.456;19.120;2023-02-14T03:28:17;23.42;;;9.10;;
71566;SDS011;59403;47.456;19.120;2023-02-14T03:30:47;21.37;;;8.40;;
71566;SDS011;59403;47.456;19.120;2023-02-14T03:33:24;20.42;;;8.88;;
71566;SDS011;59403;47.456;19.120;2023-02-14T03:35:58;20.77;;;9.00;;
71566;SDS011;59403;47.456;19.120;2023-02-14T03:38:30;26.37;;;10.00;;
71566;SDS011;59403;47.456;19.120;2023-02-14T03:41:03;20.55;;;8.48;;
71566;SDS011;59403;47.456;19.120;2023-02-14T03:43:35;23.00;;;8.90;;
71566;SDS011;59403;47.456;19.120;2023-02-14T03:46:05;24.70;;;9.20;;
71566;SDS011;59403;47.456;19.120;2023-02-14T03:48:36;24.93;;;10.37;;
71566;SDS011;59403;47.456;19.120;2023-02-14T03:51:05;26.00;;;8.82;;
71566;SDS011;59403;47.456;19.120;2023-02-14T03:53:36;23.83;;;9.07;;
71566;SDS011;59403;47.456;19.120;2023-02-14T03:56:11;21.92;;;8.77;;
71566;SDS011;59403;47.456;19.120;2023-02-14T03:58:41;22.45;;;8.63;;
71566;SDS011;59403;47.456;19.120;2023-02-14T04:01:12;22.43;;;8.50;;
71566;SDS011;59403;47.456;19.120;2023-02-14T04:03:41;23.33;;;9.30;;
71566;SDS011;59403;47.456;19.120;2023-02-14T04:06:09;20.48;;;8.48;;
71566;SDS011;59403;47.456;19.120;2023-02-14T04:08:36;21.83;;;8.27;;
71566;SDS011;59403;47.456;19.120;2023-02-14T04:11:03;23.83;;;8.68;;
71566;SDS011;59403;47.456;19.120;2023-02-14T04:13:33;22.63;;;8.80;;
71566;SDS011;59403;47.456;19.120;2023-02-14T04:16:02;23.27;;;8.45;;
71566;SDS011;59403;47.456;19.120;2023-02-14T04:18:29;23.23;;;9.05;;
71566;SDS011;59403;47.456;19.120;2023-02-14T04:21:13;20.58;;;9.18;;
71566;SDS011;59403;47.456;19.120;2023-02-14T04:23:40;23.12;;;9.23;;
71566;SDS011;59403;47.456;19.120;2023-02-14T04:26:07;19.70;;;8.40;;
71566;SDS011;59403;47.456;19.120;2023-02-14T04:28:36;24.15;;;8.93;;
71566;SDS011;59403;47.456;19.120;2023-02-14T04:31:04;21.35;;;9.27;;
71566;SDS011;59403;47.456;19.120;2023-02-14T04:33:31;23.38;;;9.63;;
71566;SDS011;59403;47.456;19.120;2023-02-14T04:35:59;21.48;;;8.95;;
71566;SDS011;59403;47.456;19.120;2023-02-14T04:38:26;26.60;;;10.10;;
71566;SDS011;59403;47.456;19.120;2023-02-14T04:40:53;23.45;;;9.27;;
71566;SDS011;59403;47.456;19.120;2023-02-14T04:43:20;23.20;;;9.65;;
71566;SDS011;59403;47.456;19.120;2023-02-14T04:45:48;25.12;;;10.10;;
71566;SDS011;59403;47.456;19.120;2023-02-14T04:48:15;22.42;;;9.90;;
71566;SDS011;59403;47.456;19.120;2023-02-14T04:50:42;25.10;;;9.83;;
71566;SDS011;59403;47.456;19.120;2023-02-14T04:53:09;26.90;;;10.02;;
71566;SDS011;59403;47.456;19.120;2023-02-14T04:55:36;23.75;;;10.23;;
71566;SDS011;59403;47.456;19.120;2023-02-14T04:58:02;25.45;;;10.45;;
71566;SDS011;59403;47.456;19.120;2023-02-14T05:00:30;24.58;;;9.68;;
71566;SDS011;59403;47.456;19.120;2023-02-14T05:02:58;24.23;;;9.03;;
71566;SDS011;59403;47.456;19.120;2023-02-14T05:05:25;25.12;;;10.10;;
71566;SDS011;59403;47.456;19.120;2023-02-14T05:07:52;25.80;;;9.68;;
71566;SDS011;59403;47.456;19.120;2023-02-14T05:10:19;25.92;;;9.43;;
71566;SDS011;59403;47.456;19.120;2023-02-14T05:12:46;25.52;;;10.05;;
71566;SDS011;59403;47.456;19.120;2023-02-14T05:15:13;23.83;;;9.80;;
71566;SDS011;59403;47.456;19.120;2023-02-14T05:17:40;21.25;;;8.50;;
71566;SDS011;59403;47.456;19.120;2023-02-14T05:20:08;25.08;;;10.50;;
71566;SDS011;59403;47.456;19.120;2023-02-14T05:22:37;22.87;;;9.40;;
71566;SDS011;59403;47.456;19.120;2023-02-14T05:25:04;26.08;;;9.80;;
71566;SDS011;59403;47.456;19.120;2023-02-14T05:27:31;21.43;;;9.40;;
71566;SDS011;59403;47.456;19.120;2023-02-14T05:29:58;24.20;;;9.32;;
71566;SDS011;59403;47.456;19.120;2023-02-14T05:32:25;25.58;;;10.15;;
71566;SDS011;59403;47.456;19.120;2023-02-14T05:34:52;25.23;;;9.70;;
71566;SDS011;59403;47.456;19.120;2023-02-14T05:37:20;25.55;;;10.60;;
71566;SDS011;59403;47.456;19.120;2023-02-14T05:39:47;28.60;;;10.90;;
71566;SDS011;59403;47.456;19.120;2023-02-14T05:42:14;24.33;;;9.65;;
71566;SDS011;59403;47.456;19.120;2023-02-14T05:44:41;25.27;;;10.80;;
71566;SDS011;59403;47.456;19.120;2023-02-14T05:47:08;27.85;;;9.52;;
71566;SDS011;59403;47.456;19.120;2023-02-14T05:49:35;18.87;;;8.88;;
71566;SDS011;59403;47.456;19.120;2023-02-14T05:52:02;23.27;;;9.63;;
71566;SDS011;59403;47.456;19.120;2023-02-14T05:54:31;24.20;;;10.50;;
71566;SDS011;59403;47.456;19.120;2023-02-14T05:56:58;28.00;;;11.45;;
71566;SDS011;59403;47.456;19.120;2023-02-14T05:59:25;25.60;;;12.98;;
71566;SDS011;59403;47.456;19.120;2023-02-14T06:01:52;28.45;;;12.60;;
71566;SDS011;59403;47.456;19.120;2023-02-14T06:04:19;26.67;;;11.10;;
71566;SDS011;59403;47.456;19.120;2023-02-14T06:06:45;23.45;;;9.90;;
71566;SDS011;59403;47.456;19.120;2023-02-14T06:09:12;27.65;;;10.48;;
71566;SDS011;59403;47.456;19.120;2023-02-14T06:11:40;24.52;;;10.15;;
71566;SDS011;59403;47.456;19.120;2023-02-14T06:14:07;27.73;;;9.85;;
71566;SDS011;59403;47.456;19.120;2023-02-14T06:16:35;23.23;;;9.70;;
71566;SDS011;59403;47.456;19.120;2023-02-14T06:19:01;25.02;;;10.98;;
71566;SDS011;59403;47.456;19.120;2023-02-14T06:21:29;24.73;;;11.23;;
71566;SDS011;59403;47.456;19.120;2023-02-14T06:23:56;24.17;;;9.98;;
71566;SDS011;59403;47.456;19.120;2023-02-14T06:26:22;25.70;;;10.85;;
71566;SDS011;59403;47.456;19.120;2023-02-14T06:28:53;24.30;;;10.23;;
71566;SDS011;59403;47.456;19.120;2023-02-14T06:31:20;25.37;;;9.90;;
71566;SDS011;59403;47.456;19.120;2023-02-14T06:33:47;26.98;;;10.82;;
71566;SDS011;59403;47.456;19.120;2023-02-14T06:36:14;27.60;;;10.55;;
71566;SDS011;59403;47.456;19.120;2023-02-14T06:38:41;26.12;;;11.63;;
71566;SDS011;59403;47.456;19.120;2023-02-14T06:41:09;33.10;;;11.83;;
71566;SDS011;59403;47.456;19.120;2023-02-14T06:43:36;27.48;;;11.65;;
71566;SDS011;59403;47.456;19.120;2023-02-14T06:46:06;30.88;;;12.10;;
71566;SDS011;59403;47.456;19.120;2023-02-14T06:48:33;28.55;;;11.93;;
71566;SDS011;59403;47.456;19.120;2023-02-14T06:50:59;30.08;;;11.70;;
71566;SDS011;59403;47.456;19.120;2023-02-14T06:53:27;30.53;;;12.87;;
71566;SDS011;59403;47.456;19.120;2023-02-14T06:55:54;29.02;;;13.98;;
71566;SDS011;59403;47.456;19.120;2023-02-14T06:58:21;30.30;;;14.68;;
71566;SDS011;59403;47.456;19.120;2023-02-14T07:00:48;37.60;;;14.32;;
71566;SDS011;59403;47.456;19.120;2023-02-14T07:03:16;35.95;;;15.45;;
71566;SDS011;59403;47.456;19.120;2023-02-14T07:05:43;36.60;;;15.40;;
71566;SDS011;59403;47.456;19.120;2023-02-14T07:08:10;39.08;;;17.33;;
71566;SDS011;59403;47.456;19.120;2023-02-14T07:10:37;43.50;;;18.80;;
71566;SDS011;59403;47.456;19.120;2023-02-14T07:13:04;43.25;;;20.23;;
71566;SDS011;59403;47.456;19.120;2023-02-14T07:15:31;48.65;;;20.02;;
71566;SDS011;59403;47.456;19.120;2023-02-14T07:17:58;43.53;;;19.43;;
71566;SDS011;59403;47.456;19.120;2023-02-14T07:20:27;43.72;;;19.98;;
71566;SDS011;59403;47.456;19.120;2023-02-14T07:22:54;43.87;;;20.08;;
71566;SDS011;59403;47.456;19.120;2023-02-14T07:25:21;41.58;;;19.37;;
71566;SDS011;59403;47.456;19.120;2023-02-14T07:27:48;43.25;;;20.62;;
71566;SDS011;59403;47.456;19.120;2023-02-14T07:30:31;44.65;;;19.30;;
71566;SDS011;59403;47.456;19.120;2023-02-14T07:32:58;46.30;;;20.37;;
71566;SDS011;59403;47.456;19.120;2023-02-14T07:35:25;41.30;;;19.20;;
71566;SDS011;59403;47.456;19.120;2023-02-14T07:37:52;38.70;;;17.17;;
71566;SDS011;59403;47.456;19.120;2023-02-14T07:40:19;41.47;;;17.80;;
71566;SDS011;59403;47.456;19.120;2023-02-14T07:42:50;39.38;;;16.70;;
71566;SDS011;59403;47.456;19.120;2023-02-14T07:45:18;39.95;;;18.83;;
71566;SDS011;59403;47.456;19.120;2023-02-14T07:47:47;41.17;;;20.85;;
71566;SDS011;59403;47.456;19.120;2023-02-14T07:50:18;48.22;;;22.58;;
71566;SDS011;59403;47.456;19.120;2023-02-14T07:52:45;47.27;;;22.80;;
71566;SDS011;59403;47.456;19.120;2023-02-14T07:55:12;45.97;;;23.20;;
71566;SDS011;59403;47.456;19.120;2023-02-14T07:57:40;44.97;;;22.20;;
71566;SDS011;59403;47.456;19.120;2023-02-14T08:00:08;46.30;;;21.58;;
71566;SDS011;59403;47.456;19.120;2023-02-14T08:02:35;42.35;;;21.67;;
71566;SDS011;59403;47.456;19.120;2023-02-14T08:05:03;48.87;;;20.93;;
71566;SDS011;59403;47.456;19.120;2023-02-14T08:07:30;47.20;;;21.02;;
71566;SDS011;59403;47.456;19.120;2023-02-14T08:09:57;41.37;;;19.58;;
71566;SDS011;59403;47.456;19.120;2023-02-14T08:12:24;38.65;;;18.87;;
71566;SDS011;59403;47.456;19.120;2023-02-14T08:15:09;44.08;;;18.12;;
71566;SDS011;59403;47.456;19.120;2023-02-14T08:17:54;39.97;;;17.20;;
71566;SDS011;59403;47.456;19.120;2023-02-14T08:20:23;37.42;;;17.77;;
71566;SDS011;59403;47.456;19.120;2023-02-14T08:22:50;40.50;;;17.33;;
71566;SDS011;59403;47.456;19.120;2023-02-14T08:25:17;37.80;;;17.00;;
71566;SDS011;59403;47.456;19.120;2023-02-14T08:27:44;36.88;;;17.10;;
71566;SDS011;59403;47.456;19.120;2023-02-14T08:30:12;36.30;;;15.67;;
71566;SDS011;59403;47.456;19.120;2023-02-14T08:32:39;33.95;;;14.32;;
71566;SDS011;59403;47.456;19.120;2023-02-14T08:35:06;34.42;;;14.85;;
71566;SDS011;59403;47.456;19.120;2023-02-14T08:37:35;28.75;;;12.50;;
71566;SDS011;59403;47.456;19.120;2023-02-14T08:40:02;28.42;;;12.63;;
71566;SDS011;59403;47.456;19.120;2023-02-14T08:42:29;23.73;;;10.33;;
71566;SDS011;59403;47.456;19.120;2023-02-14T08:44:56;27.40;;;11.60;;
71566;SDS011;59403;47.456;19.120;2023-02-14T08:47:23;25.42;;;12.40;;
71566;SDS011;59403;47.456;19.120;2023-02-14T08:49:50;29.17;;;12.98;;
71566;SDS011;59403;47.456;19.120;2023-02-14T08:52:17;26.90;;;12.40;;
71566;SDS011;59403;47.456;19.120;2023-02-14T08:54:45;28.20;;;12.17;;
71566;SDS011;59403;47.456;19.120;2023-02-14T08:57:12;29.08;;;12.82;;
71566;SDS011;59403;47.456;19.120;2023-02-14T08:59:41;26.90;;;13.32;;
71566;SDS011;59403;47.456;19.120;2023-02-14T09:02:10;23.50;;;11.32;;
71566;SDS011;59403;47.456;19.120;2023-02-14T09:04:38;27.42;;;12.15;;
71566;SDS011;59403;47.456;19.120;2023-02-14T09:07:06;24.37;;;13.30;;
71566;SDS011;59403;47.456;19.120;2023-02-14T09:09:33;26.27;;;12.18;;
71566;SDS011;59403;47.456;19.120;2023-02-14T09:12:03;25.20;;;11.95;;
71566;SDS011;59403;47.456;19.120;2023-02-14T09:14:33;23.95;;;11.48;;
71566;SDS011;59403;47.456;19.120;2023-02-14T09:17:01;22.83;;;10.40;;
71566;SDS011;59403;47.456;19.120;2023-02-14T09:19:29;22.83;;;10.07;;
71566;SDS011;59403;47.456;19.120;2023-02-14T09:21:56;21.85;;;10.55;;
71566;SDS011;59403;47.456;19.120;2023-02-14T09:24:23;17.30;;;8.82;;
71566;SDS011;59403;47.456;19.120;2023-02-14T09:26:52;18.30;;;9.32;;
71566;SDS011;59403;47.456;19.120;2023-02-14T09:29:20;20.08;;;9.50;;
71566;SDS011;59403;47.456;19.120;2023-02-14T09:31:47;20.97;;;10.37;;
71566;SDS011;59403;47.456;19.120;2023-02-14T09:34:14;17.62;;;7.90;;
71566;SDS011;59403;47.456;19.120;2023-02-14T09:36:40;15.85;;;7.85;;
71566;SDS011;59403;47.456;19.120;2023-02-14T09:39:25;18.73;;;8.48;;
71566;SDS011;59403;47.456;19.120;2023-02-14T09:45:03;21.87;;;10.30;;
71566;SDS011;59403;47.456;19.120;2023-02-14T09:47:34;21.17;;;9.43;;
71566;SDS011;59403;47.456;19.120;2023-02-14T09:50:09;17.98;;;9.82;;
71566;SDS011;59403;47.456;19.120;2023-02-14T09:52:42;18.87;;;9.45;;
71566;SDS011;59403;47.456;19.120;2023-02-14T09:55:12;16.83;;;8.30;;
71566;SDS011;59403;47.456;19.120;2023-02-14T09:57:42;19.03;;;9.10;;
71566;SDS011;59403;47.456;19.120;2023-02-14T10:00:26;15.80;;;8.05;;
71566;SDS011;59403;47.456;19.120;2023-02-14T10:03:02;17.08;;;8.55;;
71566;SDS011;59403;47.456;19.120;2023-02-14T10:05:43;17.50;;;8.73;;
71566;SDS011;59403;47.456;19.120;2023-02-14T10:08:16;18.65;;;9.48;;
71566;SDS011;59403;47.456;19.120;2023-02-14T10:10:56;15.50;;;8.03;;
71566;SDS011;59403;47.456;19.120;2023-02-14T10:13:28;15.18;;;8.48;;
71566;SDS011;59403;47.456;19.120;2023-02-14T10:16:07;16.15;;;8.00;;
71566;SDS011;59403;47.456;19.120;2023-02-14T10:18:41;16.05;;;8.10;;
71566;SDS011;59403;47.456;19.120;2023-02-14T10:21:13;15.32;;;8.80;;
71566;SDS011;59403;47.456;19.120;2023-02-14T10:23:48;14.30;;;7.63;;
71566;SDS011;59403;47.456;19.120;2023-02-14T10:26:20;15.77;;;8.23;;
71566;SDS011;59403;47.456;19.120;2023-02-14T10:31:24;16.77;;;7.93;;
71566;SDS011;59403;47.456;19.120;2023-02-14T10:33:53;18.70;;;8.15;;
71566;SDS011;59403;47.456;19.120;2023-02-14T10:36:25;14.87;;;8.50;;
71566;SDS011;59403;47.456;19.120;2023-02-14T10:39:07;14.63;;;7.32;;
71566;SDS011;59403;47.456;19.120;2023-02-14T10:41:48;16.25;;;7.95;;
71566;SDS011;59403;47.456;19.120;2023-02-14T10:44:21;15.23;;;8.02;;
71566;SDS011;59403;47.456;19.120;2023-02-14T10:47:03;14.55;;;7.95;;
71566;SDS011;59403;47.456;19.120;2023-02-14T10:49:39;16.40;;;7.83;;
71566;SDS011;59403;47.456;19.120;2023-02-14T10:52:15;13.27;;;6.95;;
71566;SDS011;59403;47.456;19.120;2023-02-14T10:54:50;13.68;;;7.90;;
71566;SDS011;59403;47.456;19.120;2023-02-14T10:57:20;14.05;;;6.97;;
71566;SDS011;59403;47.456;19.120;2023-02-14T10:59:58;15.93;;;8.38;;
71566;SDS011;59403;47.456;19.120;2023-02-14T11:02:29;19.63;;;9.43;;
71566;SDS011;59403;47.456;19.120;2023-02-14T11:04:59;15.43;;;8.27;;
71566;SDS011;59403;47.456;19.120;2023-02-14T11:07:27;15.63;;;8.23;;
71566;SDS011;59403;47.456;19.120;2023-02-14T11:09:54;15.55;;;8.23;;
71566;SDS011;59403;47.456;19.120;2023-02-14T11:12:32;15.75;;;8.68;;
71566;SDS011;59403;47.456;19.120;2023-02-14T11:15:17;14.37;;;7.70;;
71566;SDS011;59403;47.456;19.120;2023-02-14T11:17:49;15.45;;;7.50;;
71566;SDS011;59403;47.456;19.120;2023-02-14T11:20:32;14.18;;;8.18;;
71566;SDS011;59403;47.456;19.120;2023-02-14T11:22:59;14.18;;;7.78;;
71566;SDS011;59403;47.456;19.120;2023-02-14T11:25:27;16.85;;;8.73;;
71566;SDS011;59403;47.456;19.120;2023-02-14T11:27:59;18.57;;;8.57;;
71566;SDS011;59403;47.456;19.120;2023-02-14T11:30:33;14.10;;;7.62;;
71566;SDS011;59403;47.456;19.120;2023-02-14T11:33:03;14.68;;;8.05;;
71566;SDS011;59403;47.456;19.120;2023-02-14T11:35:32;16.62;;;8.15;;
71566;SDS011;59403;47.456;19.120;2023-02-14T11:37:59;20.35;;;9.75;;
71566;SDS011;59403;47.456;19.120;2023-02-14T11:40:29;15.67;;;8.83;;
71566;SDS011;59403;47.456;19.120;2023-02-14T11:42:58;15.82;;;8.50;;
71566;SDS011;59403;47.456;19.120;2023-02-14T11:45:31;16.25;;;8.82;;
71566;SDS011;59403;47.456;19.120;2023-02-14T11:50:52;16.83;;;8.85;;
71566;SDS011;59403;47.456;19.120;2023-02-14T11:53:21;18.63;;;9.00;;
71566;SDS011;59403;47.456;19.120;2023-02-14T11:55:51;17.42;;;9.00;;
71566;SDS011;59403;47.456;19.120;2023-02-14T11:58:26;16.48;;;8.77;;
71566;SDS011;59403;47.456;19.120;2023-02-14T12:00:56;16.65;;;8.63;;
71566;SDS011;59403;47.456;19.120;2023-02-14T12:03:26;18.27;;;8.20;;
71566;SDS011;59403;47.456;19.120;2023-02-14T12:05:54;18.03;;;8.90;;
71566;SDS011;59403;47.456;19.120;2023-02-14T12:08:25;15.07;;;7.25;;
71566;SDS011;59403;47.456;19.120;2023-02-14T12:11:02;16.40;;;8.07;;
71566;SDS011;59403;47.456;19.120;2023-02-14T12:13:30;14.93;;;8.45;;
71566;SDS011;59403;47.456;19.120;2023-02-14T12:15:58;16.17;;;8.25;;
71566;SDS011;59403;47.456;19.120;2023-02-14T12:18:38;16.07;;;8.17;;
71566;SDS011;59403;47.456;19.120;2023-02-14T12:21:23;15.30;;;8.25;;
71566;SDS011;59403;47.456;19.120;2023-02-14T12:24:00;14.38;;;7.87;;
71566;SDS011;59403;47.456;19.120;2023-02-14T12:26:32;14.18;;;7.68;;
71566;SDS011;59403;47.456;19.120;2023-02-14T12:29:03;13.62;;;7.70;;
71566;SDS011;59403;47.456;19.120;2023-02-14T12:31:39;15.73;;;7.27;;
71566;SDS011;59403;47.456;19.120;2023-02-14T12:34:09;12.98;;;6.90;;
71566;SDS011;59403;47.456;19.120;2023-02-14T12:36:44;14.40;;;7.55;;
71566;SDS011;59403;47.456;19.120;2023-02-14T12:39:24;14.95;;;7.50;;
71566;SDS011;59403;47.456;19.120;2023-02-14T12:42:02;14.25;;;7.47;;
71566;SDS011;59403;47.456;19.120;2023-02-14T12:44:40;15.10;;;7.07;;
71566;SDS011;59403;47.456;19.120;2023-02-14T12:47:16;13.48;;;7.60;;
71566;SDS011;59403;47.456;19.120;2023-02-14T12:55:58;14.13;;;6.95;;
71566;SDS011;59403;47.456;19.120;2023-02-14T12:58:39;15.50;;;6.63;;
71566;SDS011;59403;47.456;19.120;2023-02-14T13:01:34;13.05;;;6.18;;
71566;SDS011;59403;47.456;19.120;2023-02-14T13:07:28;11.95;;;6.85;;
71566;SDS011;59403;47.456;19.120;2023-02-14T13:10:10;15.48;;;7.05;;
71566;SDS011;59403;47.456;19.120;2023-02-14T13:12:42;14.60;;;7.00;;
71566;SDS011;59403;47.456;19.120;2023-02-14T13:15:18;11.98;;;6.35;;
71566;SDS011;59403;47.456;19.120;2023-02-14T13:17:52;12.68;;;6.50;;
71566;SDS011;59403;47.456;19.120;2023-02-14T13:20:29;12.02;;;6.50;;
71566;SDS011;59403;47.456;19.120;2023-02-14T13:23:13;13.52;;;6.70;;
71566;SDS011;59403;47.456;19.120;2023-02-14T13:25:45;11.87;;;6.47;;
71566;SDS011;59403;47.456;19.120;2023-02-14T13:28:17;12.70;;;6.65;;
71566;SDS011;59403;47.456;19.120;2023-02-14T13:30:45;11.43;;;6.35;;
71566;SDS011;59403;47.456;19.120;2023-02-14T13:33:20;12.10;;;6.90;;
71566;SDS011;59403;47.456;19.120;2023-02-14T13:35:52;12.30;;;6.53;;
71566;SDS011;59403;47.456;19.120;2023-02-14T13:38:24;12.30;;;6.53;;
71566;SDS011;59403;47.456;19.120;2023-02-14T13:40:53;13.98;;;6.80;;
71566;SDS011;59403;47.456;19.120;2023-02-14T13:46:17;11.07;;;5.37;;
71566;SDS011;59403;47.456;19.120;2023-02-14T13:48:59;12.35;;;6.32;;
71566;SDS011;59403;47.456;19.120;2023-02-14T13:51:44;12.03;;;6.80;;
71566;SDS011;59403;47.456;19.120;2023-02-14T13:54:25;14.00;;;7.03;;
71566;SDS011;59403;47.456;19.120;2023-02-14T13:56:56;13.30;;;6.25;;
71566;SDS011;59403;47.456;19.120;2023-02-14T13:59:25;12.50;;;6.00;;
71566;SDS011;59403;47.456;19.120;2023-02-14T14:01:54;14.65;;;6.72;;
71566;SDS011;59403;47.456;19.120;2023-02-14T14:04:41;13.47;;;6.97;;
71566;SDS011;59403;47.456;19.120;2023-02-14T14:07:15;15.02;;;7.72;;
71566;SDS011;59403;47.456;19.120;2023-02-14T14:09:57;15.40;;;7.40;;
71566;SDS011;59403;47.456;19.120;2023-02-14T14:12:36;12.88;;;7.20;;
71566;SDS011;59403;47.456;19.120;2023-02-14T14:17:37;19.57;;;7.70;;
71566;SDS011;59403;47.456;19.120;2023-02-14T14:26:00;16.80;;;8.25;;
71566;SDS011;59403;47.456;19.120;2023-02-14T14:28:30;17.17;;;9.68;;
71566;SDS011;59403;47.456;19.120;2023-02-14T14:30:58;16.37;;;7.97;;
71566;SDS011;59403;47.456;19.120;2023-02-14T14:33:26;17.42;;;8.57;;
71566;SDS011;59403;47.456;19.120;2023-02-14T14:35:55;17.08;;;8.68;;
71566;SDS011;59403;47.456;19.120;2023-02-14T14:38:24;17.42;;;8.30;;
71566;SDS011;59403;47.456;19.120;2023-02-14T14:40:52;18.23;;;9.20;;
71566;SDS011;59403;47.456;19.120;2023-02-14T14:43:24;18.63;;;8.87;;
71566;SDS011;59403;47.456;19.120;2023-02-14T14:45:55;15.98;;;8.68;;
71566;SDS011;59403;47.456;19.120;2023-02-14T14:48:26;17.90;;;9.30;;
71566;SDS011;59403;47.456;19.120;2023-02-14T14:50:55;16.35;;;8.25;;
71566;SDS011;59403;47.456;19.120;2023-02-14T14:53:24;16.83;;;8.80;;
71566;SDS011;59403;47.456;19.120;2023-02-14T14:55:54;16.50;;;8.37;;
71566;SDS011;59403;47.456;19.120;2023-02-14T14:58:37;18.52;;;7.85;;
71566;SDS011;59403;47.456;19.120;2023-02-14T15:01:07;16.20;;;7.97;;
71566;SDS011;59403;47.456;19.120;2023-02-14T15:03:40;17.48;;;8.77;;
71566;SDS011;59403;47.456;19.120;2023-02-14T15:06:12;18.27;;;8.98;;
71566;SDS011;59403;47.456;19.120;2023-02-14T15:08:42;18.80;;;9.60;;
71566;SDS011;59403;47.456;19.120;2023-02-14T15:11:10;15.63;;;8.65;;
71566;SDS011;59403;47.456;19.120;2023-02-14T15:14:02;16.80;;;8.82;;
71566;SDS011;59403;47.456;19.120;2023-02-14T15:16:31;18.55;;;8.57;;